KFMY/FMY METAR and TAF weather

Enter ICAO airport designator
Station Type Date Time Source
KFMY METAR 2021/09/25 02:53 UTC NOAA

KFMY 250253Z AUTO 05004KT 10SM -RA BKN041 BKN080 OVC100 25/24 A2998 RMK AO2 LTG DSNT NE AND W RAB01 SLP153 P0042 60042 T02500239 51012


Station Type Date Time Source
KFMY Decoded METAR 2021/09/25 02:53 UTC NOAA

FORT MYERS PAGE FIELD, FL, United States (KFMY) 26-35N 081-52W 4M
Sep 24, 2021 - 10:53 PM EDT / 2021.09.25 0253 UTC
Wind: from the NE (050 degrees) at 5 MPH (4 KT):0
Visibility: 10 mile(s):0
Sky conditions: overcast
Weather: light rain; Lightning observed
Precipitation last hour: 0.42 inches
Temperature: 77.0 F (25.0 C)
Dew Point: 75.0 F (23.9 C)
Relative Humidity: 93%
Pressure (altimeter): 29.98 in. Hg (1015 hPa)
Pressure tendency: 0.04 inches (1.2 hPa) higher than three hours ago
ob: KFMY 250253Z AUTO 05004KT 10SM -RA BKN041 BKN080 OVC100 25/24 A2998 RMK AO2 LTG DSNT NE AND W RAB01 SLP153 P0042 60042 T02500239 51012
cycle: 3

Station Type Date Time Source
KFMY TAF 2021/09/25 01:30 UTC NOAA

TAF
AMD KFMY 250129Z 2501/2524 26007KT P6SM VCTS FEW035CB SCT060 BKN090
TEMPO 2501/2503 VRB10G20KT 3SM SHRA BKN030
FM250300 08003KT P6SM FEW015 SCT250
FM251400 10006KT P6SM FEW030 SCT250
FM251700 30007KT P6SM FEW045 SCT250
FM252000 31008KT P6SM VCTS SCT040CB BKN100

Example: see airport list